Tiempo atmosférico en la estación meteorológica de Alicante/Alacant Aeropuerto, Alacant/Alicante (43 m.)



Fecha
DESCASC
Temp. máxima en grados centígrados (hora)
DESCASC
Temp. mínima en grados centígrados (hora)
DESCASC
Temp. media en grados centígrados
DESCASC
Racha de viento máxima en m/sg (hora)
DESCASC
Velocidad máxima media en intervalos de 10 minutos(hora)
DESCASC
Precipitaciones diarias en mm
DESCASC
Precipitaciones de 00:00 a 06:00 en mm
DESCASC
Precipitaciones de 06:00 a 12:00 en mm
DESCASC
Precipitaciones de 12:00 a 18:00 en mm
DESCASC
Precipitaciones de 18:00 a 24:00 en mm
DESCASC

Gráficas

Temp. máximas Temp. mínimas Temp. medias Precipitaciones Rachas de viento máximas Velocidades máximas media en intervalos de 10 minutos

Datos horarios

Fecha y hora oficial Temperatura (ºC) Velocidad del viento (km/h) Dirección del viento Racha (km/h) Dirección de racha Precipitación (mm) Presión (hPa) Tendencia (hPa) Humedad (%)
2019-02-22 23:00:00 12.6 14 Noroeste 18 Noroeste 0 1024.5 -0.9 63
2019-02-22 22:00:00 10.2 13 Oeste 17 Oeste 0 1024.9 0 76
2019-02-22 21:00:00 11.1 7 Oeste 9 Oeste 0 1025.3 0.5 76
2019-02-22 20:00:00 12.8 4 Norte 8 Norte 0 1025.4 0.2 74
2019-02-22 19:00:00 13.9 5 Sudoeste 11 Sur 0 1024.9 -0.2 72
2019-02-22 18:00:00 16.2 8 Sur 17 Sur 0 1024.8 -0.5 63
2019-02-22 17:00:00 17.6 11 Sur 17 Sur 0 1025.2 -0.5 57
2019-02-22 16:00:00 18.2 10 Sur 21 Sur 0 1025.1 -1.5 54
2019-02-22 15:00:00 18.8 11 Sur 21 Sur 0 1025.3 -2.6 47
2019-02-22 14:00:00 18.7 12 Sur 21 Sudoeste 0 1025.7 -2.7 43
2019-02-22 13:00:00 17.6 13 Sudoeste 22 Sudoeste 0 1026.6 -1.8 39
2019-02-22 12:00:00 16 11 Sur 18 Sur 0 1027.9 -0.4 49
2019-02-22 11:00:00 15.1 10 Sur 15 Sur 0 1028.4 0.5 54
2019-02-22 10:00:00 12.3 8 Sudoeste 13 Sudoeste 0 1028.4 0.5 58
2019-02-22 09:00:00 8 7 Oeste 13 Sudoeste 0 1028.3 0.4 78
2019-02-22 08:00:00 5.5 8 Sudoeste 18 Oeste 0 1027.9 0 83
2019-02-22 07:00:00 5.6 12 Oeste 15 Oeste 0 1027.9 0 85
2019-02-22 06:00:00 5.4 10 Oeste 15 Oeste 0 1027.9 -0.3 86
2019-02-22 05:00:00 7 9 Oeste 13 Oeste 0 1027.9 -0.4 84
2019-02-22 04:00:00 6.1 9 Oeste 11 Oeste 0 1027.9 -0.5 90
2019-02-22 03:00:00 6.9 8 Oeste 11 Oeste 0 1028.2 -0.2 88
2019-02-22 02:00:00 7.3 7 Oeste 9 Noroeste 0 1028.3 -0.1 89
2019-02-22 01:00:00 7.8 9 Noroeste 15 Noroeste 0 1028.4 0 88
2019-02-22 00:00:00 -- -- -- -- -- 0 1028.4 0.6 --
2019-02-21 23:00:00 8.8 7 Oeste 11 Noroeste 0 1028.4 1 87
2019-02-21 22:00:00 9.6 5 Oeste 8 Noroeste 0 1028.4 1.7 83
2019-02-21 21:00:00 10.1 3 Norte 5 Noroeste 0 1027.8 1.5 83
2019-02-21 20:00:00 12 0 Calma 9 Norte 0 1027.4 1.1 79
2019-02-21 19:00:00 12.2 4 Este 15 Este 0 1026.7 0.5 77
2019-02-21 18:00:00 13.9 11 Este 15 Este 0 1026.3 0.2 68
2019-02-21 17:00:00 14.8 12 Este 24 Este 0 1026.3 0.2 61
2019-02-21 16:00:00 15.6 14 Este 24 Este 0 1026.2 -0.2 57
2019-02-21 15:00:00 15.8 14 Este 22 Sudeste 0 1026.1 -0.7 55
2019-02-21 14:00:00 16.1 13 Este 24 Este 0 1026.1 -0.6 55
2019-02-21 13:00:00 15.1 13 Este 22 Este 0 1026.4 0 57
2019-02-21 12:00:00 14.7 12 Este 21 Este 0 1026.8 0.7 59
2019-02-21 11:00:00 14.3 4 Nordeste 13 Norte 0 1026.7 1.5 66
2019-02-21 10:00:00 12.2 12 Noroeste 22 Noroeste 0 1026.4 1.8 71
2019-02-21 09:00:00 8.5 14 Noroeste 18 Noroeste 0 1026.1 1.7 83
2019-02-21 08:00:00 7.3 10 Oeste 13 Noroeste 0 1025.2 1.1 86
2019-02-21 07:00:00 7.1 5 Oeste 9 Noroeste 0 1024.6 0.7 86
2019-02-21 06:00:00 7.7 6 Oeste 9 Oeste 0 1024.4 0.3 85
2019-02-21 05:00:00 7.2 3 Oeste 8 Noroeste 0 1024.1 0 88
2019-02-21 04:00:00 7.8 6 Oeste 8 Noroeste 0 1023.9 -0.1 88
2019-02-21 03:00:00 8.3 5 Noroeste 13 Noroeste 0 1024.1 0.2 88
2019-02-21 02:00:00 8.5 7 Oeste 13 Noroeste 0 1024.1 0.1 87
2019-02-21 01:00:00 10.3 9 Noroeste 13 Noroeste 0 1024 0.2 83
2019-02-21 00:00:00 11.2 6 Noroeste 9 Noroeste 0 1023.9 0.7 80
2019-02-20 23:00:00 11.8 5 Noroeste 9 Norte 0 1024 1.4 78
2019-02-20 22:00:00 11.9 5 Noroeste 8 Noroeste 0 1023.8 1.8 79
2019-02-20 21:00:00 11.9 0 Calma 13 Este 0 1023.2 1.9 79
2019-02-20 20:00:00 11.7 11 Este 17 Este 0 1022.6 1.2 80
2019-02-20 19:00:00 12.6 11 Este 21 Este 0 1022 0.5 75
2019-02-20 18:00:00 13.8 14 Este 22 Este 0 1021.3 -0.1 70
2019-02-20 17:00:00 14.7 15 Este 22 Este 0 1021.4 -0.2 61
2019-02-20 16:00:00 15.3 15 Este 24 Este 0 1021.5 -0.4 58
2019-02-20 15:00:00 15.9 16 Sudeste 26 Sudeste 0 1021.4 -0.7 51
2019-02-20 14:00:00 16 13 Sudeste 24 Este 0 1021.6 -0.2 50
2019-02-20 13:00:00 17 13 Sudeste 21 Sudeste 0 1021.9 0.5 47
2019-02-20 12:00:00 16.2 4 Nordeste 15 Sur 0 1022.1 1.3 49
2019-02-20 11:00:00 14.5 7 Sudoeste 22 Oeste 0 1021.8 1.9 54
2019-02-20 10:00:00 12.9 14 Oeste 18 Oeste 0 1021.4 2.1 58
2019-02-20 09:00:00 10.2 14 Noroeste 18 Noroeste 0 1020.8 1.5 68
2019-02-20 08:00:00 9.1 15 Noroeste 22 Noroeste 0 1019.9 0.8 73
2019-02-20 07:00:00 9.3 15 Noroeste 21 Noroeste 0 1019.3 0.1 70
2019-02-20 06:00:00 10.2 11 Noroeste 21 Noroeste 0 1019.3 -0.2 68
2019-02-20 05:00:00 10.4 7 Noroeste 18 Noroeste 0 1019.1 -0.3 70
2019-02-20 04:00:00 11.4 11 Noroeste 15 Noroeste 0 1019.2 -0.2 70
2019-02-20 03:00:00 11.5 6 Oeste 11 Oeste 0 1019.5 0.2 76
2019-02-20 02:00:00 11.7 3 Norte 9 Norte 0 1019.4 0.1 75
2019-02-20 01:00:00 11 8 Norte 13 Norte 0 1019.4 0.7 83
2019-02-20 00:00:00 9.5 8 Norte 11 Norte 0 1019.3 1 87
2019-02-19 23:00:00 10.3 5 Norte 17 Nordeste 0 1019.3 1.3 86
2019-02-19 22:00:00 12 11 Nordeste 24 Nordeste 0 1018.7 1.5 83
2019-02-19 21:00:00 12.1 15 Nordeste 28 Este 0 1018.3 1.6 81
2019-02-19 20:00:00 12.3 18 Este 30 Este 0 1018 1.2 81
2019-02-19 19:00:00 12.7 21 Este 32 Este 0 1017.2 0.3 76
2019-02-19 18:00:00 13.8 22 Este 32 Este 0 1016.7 -0.3 71
2019-02-19 17:00:00 15.1 23 Este 35 Este 0 1016.8 -0.5 65
2019-02-19 16:00:00 15.3 22 Este 33 Este 0 1016.9 -1 63
2019-02-19 15:00:00 15.6 23 Este 35 Norte 0 1017 -1.2 61
2019-02-19 14:00:00 16 19 Este 32 Este 0 1017.3 -0.7 56
2019-02-19 13:00:00 16.4 14 Este 22 Este 0 1017.9 -0.1 44
2019-02-19 12:00:00 16.4 12 Este 18 Sudeste 0 1018.2 0.5 38
2019-02-19 11:00:00 15.4 6 Este 18 Noroeste 0 1018 1 41
2019-02-19 10:00:00 13 12 Noroeste 17 Noroeste 0 1018 1.4 54
2019-02-19 09:00:00 9.4 14 Noroeste 21 Noroeste 0 1017.7 1.2 65
2019-02-19 08:00:00 7.2 15 Noroeste 21 Noroeste 0 1017 0.4 73
2019-02-19 07:00:00 6.7 11 Oeste 17 Noroeste 0 1016.6 -0.2 74
2019-02-19 06:00:00 6.8 12 Noroeste 15 Noroeste 0 1016.5 -0.4 72
2019-02-19 05:00:00 7.3 11 Noroeste 15 Noroeste 0 1016.6 -0.3 69
2019-02-19 04:00:00 7 11 Noroeste 13 Noroeste 0 1016.8 -0.2 72
2019-02-19 03:00:00 7 10 Noroeste 11 Noroeste 0 1016.9 -0.2 72
2019-02-19 02:00:00 7.2 5 Norte -- -- 0 1016.9 -0.3 74
2019-02-19 01:00:00 8.7 6 Noroeste 15 Nordeste 0 1017 -0.2 74
2019-02-19 00:00:00 10.9 10 Norte 17 Nordeste 0 1017.1 0.2 72
2019-02-18 23:00:00 10.8 10 Nordeste 15 Nordeste 0 1017.2 0.6 84
2019-02-18 22:00:00 10.8 9 Norte 15 Este 0 1017.2 1.1 87
2019-02-18 21:00:00 11.3 10 Nordeste 26 Este 0 1016.9 1.1 87
2019-02-18 20:00:00 12.1 10 Nordeste 26 Este 0 1016.6 0.7 85
2019-02-18 19:00:00 12.7 19 Este 30 Este 0 1016.1 -0.1 83
2019-02-18 18:00:00 14 21 Este 33 Este 0 1015.8 -0.8 77
2019-02-18 17:00:00 15.2 22 Este 32 Este 0 1015.9 -1.3 68
2019-02-18 16:00:00 15.9 24 Nordeste 33 Este 0 1016.2 -1.6 56
2019-02-18 15:00:00 16.6 20 Este 33 Este 0 1016.6 -1.7 49
2019-02-18 14:00:00 16.6 23 Este 37 Este 0 1017.2 -1.2 51
2019-02-18 13:00:00 16.2 26 Este 37 Este 0 1017.8 -0.6 56
2019-02-18 12:00:00 15.8 19 Este 30 Este 0 1018.3 0 54
2019-02-18 11:00:00 15.1 12 Este 18 Este 0 1018.4 0.7 54
2019-02-18 10:00:00 14.2 8 Nordeste 15 Nordeste 0 1018.4 0.5 52
2019-02-18 09:00:00 9.1 7 Noroeste 15 Norte 0 1018.3 0.2 73
2019-02-18 08:00:00 9.8 11 Norte 18 Norte 0 1017.7 -0.5 72
2019-02-18 07:00:00 9.4 12 Norte 18 Norte 0 1017.9 -0.7 76
2019-02-18 06:00:00 6.5 6 Norte 15 Noroeste 0 1018.1 -1.2 86
2019-02-18 05:00:00 7.4 10 Noroeste 13 Noroeste 0 1018.2 -1.4 82
2019-02-18 04:00:00 8.3 5 Noroeste 11 Norte 0 1018.6 -1.2 84
2019-02-18 03:00:00 8.8 9 Norte -- -- 0 1019.3 -0.8 81
2019-02-18 02:00:00 9.3 8 Norte 17 Norte 0 1019.6 -0.7 81
2019-02-18 01:00:00 10 11 Norte 18 Norte 0 1019.8 -0.8 80
2019-02-18 00:00:00 9.9 13 Nordeste 18 Nordeste 0 1020.1 -0.3 83
2019-02-17 23:00:00 10.5 12 Nordeste 24 Nordeste 0 1020.3 0 84
2019-02-17 22:00:00 11.6 13 Norte 17 Norte 0 1020.6 0.7 82
2019-02-17 21:00:00 12.3 10 Nordeste 18 Este 0 1020.4 0.6 83
2019-02-17 20:00:00 11.8 9 Nordeste 21 Este 0 1020.3 0.3 84
2019-02-17 19:00:00 12.6 14 Nordeste 32 Este 0 1019.9 -0.5 81
2019-02-17 18:00:00 13.9 19 Este 30 Norte 0 1019.8 -1.2 75
2019-02-17 17:00:00 14.1 23 Este 32 Este 0 1020 -1.7 72
2019-02-17 16:00:00 15.8 22 Este 33 Este 0 1020.4 -2.1 63
2019-02-17 15:00:00 15.8 20 Nordeste 32 Este 0 1021 -2 62
2019-02-17 14:00:00 15.7 24 Este 33 Este 0 1021.7 -1.5 63
2019-02-17 13:00:00 15.1 23 Este 32 Este 0 1022.5 -0.6 64
2019-02-17 12:00:00 14.1 21 Este 28 Este 0 1023 0 66
2019-02-17 11:00:00 13 9 Nordeste 17 Este 0 1023.2 0.7 61
2019-02-17 10:00:00 11 4 Noroeste 11 Noroeste 0 1023.1 0.9 59
2019-02-17 09:00:00 8.1 9 Oeste 13 Oeste 0 1023 0.7 66
2019-02-17 08:00:00 6.9 9 Oeste 13 Oeste 0 1022.5 0.3 68
2019-02-17 07:00:00 6.9 5 Oeste 9 Noroeste 0 1022.2 -0.4 68
2019-02-17 06:00:00 6.7 2 Norte 11 Oeste 0 1022.3 -0.7 70
2019-02-17 05:00:00 6.6 9 Oeste 15 Noroeste 0 1022.2 -1.2 74
2019-02-17 04:00:00 6.8 11 Oeste 15 Noroeste 0 1022.6 -1 73
2019-02-17 03:00:00 7 13 Noroeste 15 Noroeste 0 1023 -0.6 73
2019-02-17 02:00:00 -- 11 Oeste 15 Oeste 0 1023.4 -0.2 --
2019-02-17 01:00:00 5.9 13 Oeste -- -- 0 1023.6 -0.2 71
2019-02-17 00:00:00 8.2 8 Oeste 11 Oeste 0 1023.6 0.1 81
2019-02-16 23:00:00 9 7 Norte 17 Nordeste 0 1023.6 0.2 79
2019-02-16 22:00:00 10.8 13 Nordeste 30 Este 0 1023.8 0.7 82
2019-02-16 21:00:00 11.4 23 Este 32 Este 0 1023.5 0.6 78
2019-02-16 20:00:00 12.3 21 Este 33 Este 0 1023.4 0.2 68
2019-02-16 19:00:00 13 22 Este 35 Este 0 1023.1 -0.4 63
2019-02-16 18:00:00 14.8 27 Este 37 Este 0 1022.9 -1.2 49
2019-02-16 17:00:00 16 27 Este 37 Este 0 1023.2 -1.5 43
2019-02-16 16:00:00 16.8 27 Este 37 Este 0 1023.5 -1.9 42
2019-02-16 15:00:00 17.1 25 Este 35 Este 0 1024.1 -1.9 33
2019-02-16 14:00:00 16.6 19 Este 30 Este 0 1024.7 -1.2 39
2019-02-16 13:00:00 16.4 16 Este 28 Norte 0 1025.4 -0.2 42
2019-02-16 12:00:00 15.6 15 Este 26 Este 0 1026 0.8 48
2019-02-16 11:00:00 14.3 8 Este 17 Este 0 1025.9 1.2 52
2019-02-16 10:00:00 11.8 10 Oeste 15 Noroeste 0 1025.6 1.3 62
2019-02-16 09:00:00 8.1 10 Oeste 13 Noroeste 0 1025.2 1.2 75
2019-02-16 08:00:00 6.2 10 Noroeste 18 Noroeste 0 1024.7 0.8 82
2019-02-16 07:00:00 6.6 13 Noroeste 15 Noroeste 0 1024.3 0 83
2019-02-16 06:00:00 6.6 12 Noroeste 15 Noroeste 0 1024 -0.4 87
2019-02-16 05:00:00 7.2 9 Noroeste 13 Noroeste 0 1023.9 -0.6 90
2019-02-16 04:00:00 6.3 9 Oeste 13 Oeste 0 1024.3 -0.3 93
2019-02-16 03:00:00 6.2 11 Oeste 13 Oeste 0 1024.4 -0.5 92
2019-02-16 02:00:00 7.2 0 Calma 8 Oeste 0 1024.5 -0.7 92
2019-02-16 01:00:00 7.4 9 Oeste 13 Nordeste 0 1024.6 -0.3 90
2019-02-16 00:00:00 8.3 9 Norte 15 Norte 0 1024.9 0.1 88
2019-02-15 23:00:00 9.5 7 Norte 26 Este 0 1025.2 0.6 83
2019-02-15 22:00:00 11.5 19 Nordeste 35 Nordeste 0 1024.9 0.6 80
2019-02-15 21:00:00 11.6 22 Este 35 Este 0 1024.8 0.8 80
2019-02-15 20:00:00 12.1 27 Este 39 Este 0 1024.6 0.5 80
2019-02-15 19:00:00 12.3 19 Este 35 Este 0 1024.3 0.1 80
2019-02-15 18:00:00 13.4 24 Este 39 Este 0 1024 -0.7 75
2019-02-15 17:00:00 14.3 28 Este 37 Este 0 1024.1 -1.3 71
2019-02-15 16:00:00 14.9 27 Este 35 Este 0 1024.2 -2.1 69
2019-02-15 15:00:00 15.1 24 Nordeste 35 Este 0 1024.7 -2.4 68
2019-02-15 14:00:00 15.3 23 Este 33 Este 0 1025.4 -1.8 62
2019-02-15 13:00:00 15.3 21 Este 30 Este 0 1026.3 -0.8 61
2019-02-15 12:00:00 14.7 18 Este 30 Norte 0 1027.1 0.3 62
2019-02-15 11:00:00 14.4 14 Nordeste 32 Norte 0 1027.2 0.8 61
2019-02-15 10:00:00 12.7 6 Nordeste 17 Nordeste 0 1027.1 0.9 65
2019-02-15 09:00:00 10.1 12 Noroeste 18 Norte 0 1026.8 0.7 73
2019-02-15 08:00:00 8.8 12 Noroeste 18 Noroeste 0 1026.4 0.1 77
2019-02-15 07:00:00 10.1 12 Noroeste 15 Noroeste 0 1026.2 -0.4 73
2019-02-15 06:00:00 10.2 10 Noroeste 18 Noroeste 0 1026.1 -0.8 74
2019-02-15 05:00:00 9.6 13 Noroeste 17 Noroeste 0 1026.3 -1 77
2019-02-15 04:00:00 8.4 13 Noroeste -- -- 0 1026.6 -1 80
2019-02-15 03:00:00 9.2 11 Noroeste 13 Noroeste 0 1026.9 -0.9 79
2019-02-15 02:00:00 9 11 Noroeste 13 Norte 0 1027.3 -0.4 78
2019-02-15 01:00:00 9.3 8 Norte 13 Norte 0 1027.6 -0.3 77
2019-02-15 00:00:00 9.4 9 Norte 17 Norte 0 1027.8 -0.1 76
2019-02-14 23:00:00 10.6 11 Norte 17 Norte 0 1027.7 -0.2 72
2019-02-14 22:00:00 10.8 12 Norte 18 Norte 0 1027.9 0.1 74
2019-02-14 21:00:00 11.2 10 Nordeste 22 Este 0 1027.9 0 76
2019-02-14 20:00:00 11.7 13 Nordeste 24 Nordeste 0 1027.9 -0.2 73
2019-02-14 19:00:00 12.2 15 Nordeste 28 Este 0 1027.8 -0.6 72
2019-02-14 18:00:00 13.5 21 Este 32 Este 0 1027.9 -1 67
2019-02-14 17:00:00 14.2 21 Este 33 Este 0 1028.1 -1.5 64
2019-02-14 16:00:00 14.6 23 Este 33 Este 0 1028.4 -1.9 61
2019-02-14 15:00:00 15.1 22 Este 33 Este 0 1028.9 -2 57
2019-02-14 14:00:00 14.7 21 Este 32 Nordeste 0 1029.6 -1.3 56
2019-02-14 13:00:00 14.8 22 Nordeste 32 Nordeste 0 1030.3 -0.3 56
2019-02-14 12:00:00 14.4 20 Nordeste 35 Este 0 1030.9 0.6 55
2019-02-14 11:00:00 14.3 17 Nordeste 30 Nordeste 0 1030.9 0.8 53
2019-02-14 10:00:00 12.8 14 Norte 26 Norte 0 1030.6 0.8 57
2019-02-14 09:00:00 11.7 17 Norte 28 Norte 0 1030.3 0.9 60
2019-02-14 08:00:00 11.5 15 Norte 22 Norte 0 1030.1 1 61
2019-02-14 07:00:00 11.7 13 Norte 21 Norte 0 1029.8 0.7 62
2019-02-14 06:00:00 11.6 13 Norte 22 Nordeste 0 1029.4 0 62
2019-02-14 05:00:00 11.5 11 Norte 22 Norte 0 1029.1 -0.2 64
2019-02-14 04:00:00 11.5 14 Norte 21 Nordeste 0 1029.1 -0.2 65
2019-02-14 03:00:00 11.8 12 Norte 21 Norte 0 1029.4 0.1 64
2019-02-14 02:00:00 11.7 12 Norte 21 Norte 0 1029.3 0 65
2019-02-14 01:00:00 11.7 13 Norte 18 Norte 0 1029.3 0.4 66
2019-02-14 00:00:00 11.6 14 Norte 21 Norte 0 1029.3 0.6 67
2019-02-13 23:00:00 11.6 13 Norte 17 Norte 0 1029.3 0.7 67
2019-02-13 22:00:00 11.1 12 Norte 15 Norte 0 1028.9 0.5 70
2019-02-13 21:00:00 11.1 7 Norte 13 Este 0 1028.7 0.6 69
2019-02-13 20:00:00 11.3 8 Nordeste 15 Este 0 1028.6 0.5 68
2019-02-13 19:00:00 12.1 10 Este 18 Este 0 1028.4 0.3 67
2019-02-13 18:00:00 13.5 15 Nordeste 22 Este 0 1028.1 -0.3 60
2019-02-13 17:00:00 14.3 14 Este 24 Este 0 1028.1 -0.6 55
2019-02-13 16:00:00 14.8 19 Este 30 Este 0 1028.1 -1.1 52
2019-02-13 15:00:00 15 16 Este 26 Sudeste 0 1028.4 -1 53
2019-02-13 14:00:00 15.1 14 Sudeste 26 Este 0 1028.7 -0.5 56
2019-02-13 13:00:00 14.8 14 Sudeste 24 Sudeste 0 1029.2 0.4 59
2019-02-13 12:00:00 15.1 4 Sur 17 Sur 0 1029.4 0.8 59
2019-02-13 11:00:00 13.7 3 Oeste 11 Sudoeste 0 1029.2 1.3 63
2019-02-13 10:00:00 10.9 6 Oeste 11 Oeste 0 1028.8 1.1 71
2019-02-13 09:00:00 7.6 9 Oeste 18 Noroeste 0 1028.6 1 79
2019-02-13 08:00:00 6.1 14 Noroeste 21 Noroeste 0 1027.9 0.2 84
2019-02-13 07:00:00 6.3 13 Noroeste 18 Noroeste 0 1027.7 -0.4 84
2019-02-13 06:00:00 6.3 13 Noroeste 17 Noroeste 0 1027.6 -0.8 85
2019-02-13 05:00:00 6.8 13 Noroeste 18 Noroeste 0 1027.7 -1 86
2019-02-13 04:00:00 7.4 13 Noroeste 18 Noroeste 0 1028.1 -0.8 86
2019-02-13 03:00:00 8.2 8 Noroeste 15 Noroeste 0 1028.4 -0.9 85
2019-02-13 02:00:00 7.8 12 Noroeste 15 Noroeste 0 1028.7 -0.9 91
2019-02-13 01:00:00 8.3 9 Noroeste 13 Noroeste 0 1028.9 -0.5 89
2019-02-13 00:00:00 8.7 8 Noroeste 11 Oeste 0 1029.3 -0.1 90
2019-02-12 23:00:00 7.9 8 Noroeste 9 Noroeste 0 1029.6 0 89
2019-02-12 22:00:00 8.7 5 Noroeste 8 Oeste 0 1029.4 0.2 86
2019-02-12 21:00:00 10.7 3 Norte 9 Norte 0 1029.4 0.6 83
2019-02-12 20:00:00 11.2 0 Calma 5 Sudeste 0 1029.6 0.8 80
2019-02-12 19:00:00 11.1 4 Sudeste 13 Sudeste 0 1029.2 0.5 79
2019-02-12 18:00:00 13.4 9 Sudeste 22 Este 0 1028.8 0 71
2019-02-12 17:00:00 14.4 14 Este 24 Este 0 1028.8 -0.1 65
2019-02-12 16:00:00 15.3 13 Sudeste 24 Este 0 1028.7 -0.7 60
2019-02-12 15:00:00 15.6 12 Este 22 Este 0 1028.8 -1 55
2019-02-12 14:00:00 15.4 13 Este 26 Este 0 1028.9 -0.5 55
2019-02-12 13:00:00 15.5 17 Este 24 Este 0 1029.4 0.5 53
2019-02-12 12:00:00 15.2 15 Este 26 Este 0 1029.8 1.6 56
2019-02-12 11:00:00 14.4 14 Nordeste 24 Nordeste 0 1029.4 1.7 57
2019-02-12 10:00:00 14.1 10 Nordeste 18 Norte 0 1028.9 1.7 51
2019-02-12 09:00:00 10.2 9 Norte 15 Noroeste 0 1028.2 1.4 61
2019-02-12 08:00:00 7.8 9 Norte 15 Norte 0 1027.7 1.1 72
2019-02-12 07:00:00 7.3 5 Noroeste 9 Noroeste 0 1027.2 0.5 81
2019-02-12 06:00:00 -- 8 Noroeste 11 Noroeste 0 1026.8 -0.1 --
2019-02-12 05:00:00 7.2 8 Noroeste 11 Norte 0 1026.6 -0.2 84
2019-02-12 04:00:00 7.8 4 Noroeste 11 Norte 0 1026.7 -0.1 82
2019-02-12 03:00:00 8.8 4 Norte 8 Norte 0 1026.9 0.2 82
2019-02-12 02:00:00 9 0 Calma 18 Norte 0 1026.8 0.4 79
2019-02-12 01:00:00 10.6 7 Noroeste 11 Noroeste 0 1026.8 0.7 69
2019-02-12 00:00:00 10.3 10 Noroeste 13 Noroeste 0 1026.7 1.3 73
2019-02-11 23:00:00 11.8 9 Norte 18 Norte 0 1026.4 1.5 66
2019-02-11 22:00:00 12.3 10 Nordeste 17 Nordeste 0 1026.1 1.7 71
2019-02-11 21:00:00 12.5 10 Nordeste 22 Nordeste 0 1025.4 1.5 72
2019-02-11 20:00:00 13.2 15 Este 28 Este 0 1024.9 1.2 71
2019-02-11 19:00:00 13.7 22 Este 33 Nordeste 0 1024.4 1.4 72
2019-02-11 18:00:00 14.3 25 Este 35 Este 0 1023.9 1.3 70
2019-02-11 17:00:00 15.1 23 Este 32 Este 0 1023.7 1 62
2019-02-11 16:00:00 16.2 21 Este 32 Este 0 1023 -0.1 65
2019-02-11 15:00:00 16.5 19 Este 33 Este 0 1022.6 -0.6 62
2019-02-11 14:00:00 16.9 20 Este 35 Este 0 1022.7 -0.1 57
2019-02-11 13:00:00 16.5 26 Este 33 Este 0 1023.1 0.9 64
2019-02-11 12:00:00 16.6 26 Este 41 Este 0 1023.2 1.6 66
2019-02-11 11:00:00 18.2 23 Nordeste 37 Norte 0 1022.8 2 58
2019-02-11 10:00:00 17 13 Oeste 26 Oeste 0 1022.2 1.9 56
2019-02-11 09:00:00 15.9 17 Oeste 32 Oeste 0 1021.6 1.5 59
2019-02-11 08:00:00 14.8 19 Oeste 37 Oeste 0 1020.8 0.9 63
2019-02-11 07:00:00 13.9 23 Oeste 32 Oeste 0 1020.3 0 66
2019-02-11 06:00:00 12.8 13 Noroeste 26 Noroeste 0 1020.1 0 69
2019-02-11 05:00:00 14.4 19 Noroeste 28 Noroeste 0 1019.9 -0.2 63
2019-02-11 04:00:00 10.8 13 Oeste 21 Sudoeste 0 1020.3 0.3 71
2019-02-11 03:00:00 13.2 17 Oeste 39 Oeste 0 1020.1 0.5 64
2019-02-11 02:00:00 12.4 11 Oeste 26 Oeste 0 1020.1 0.8 65
2019-02-11 01:00:00 13.6 14 Oeste 30 Oeste 0 1020 1.1 60
2019-02-11 00:00:00 13.6 15 Oeste 21 Oeste 0 1019.6 0.9 60
2019-02-10 23:00:00 13.9 11 Oeste 30 Oeste 0 1019.3 1.2 58
2019-02-10 22:00:00 15.5 10 Oeste 28 Noroeste 0 1018.9 1 51
2019-02-10 21:00:00 15.2 14 Oeste 24 Oeste 0 1018.7 1.3 51
2019-02-10 20:00:00 16.2 16 Oeste 30 Oeste 0 1018.1 0.9 46
2019-02-10 19:00:00 16.6 19 Sudoeste 37 Oeste 0 1017.9 0.5 44
2019-02-10 18:00:00 18.1 23 Oeste 37 Oeste 0 1017.4 0 39
2019-02-10 17:00:00 18.9 28 Noroeste 42 Oeste 0 1017.2 -0.5 36
2019-02-10 16:00:00 18.9 31 Oeste 48 Oeste 0 1017.4 -0.8 35
2019-02-10 15:00:00 19.7 31 Noroeste 46 Oeste 0 1017.4 -1.2 33
2019-02-10 14:00:00 19.1 26 Oeste 54 Oeste 0 1017.7 -1 31
2019-02-10 13:00:00 18.7 37 Oeste 52 Oeste 0 1018.2 -0.2 31
2019-02-10 12:00:00 18.6 35 Noroeste 46 Noroeste 0 1018.6 0.5 31
2019-02-10 11:00:00 16.6 19 Noroeste 37 Noroeste 0 1018.7 1.2 33
2019-02-10 10:00:00 15.5 17 Oeste 28 Oeste 0 1018.4 1.3 33
2019-02-10 09:00:00 13.1 13 Oeste 18 Oeste 0 1018.1 1.3 40
2019-02-10 08:00:00 8.8 11 Sudoeste 18 Oeste 0 1017.5 0.6 59
2019-02-10 07:00:00 8.8 15 Sudoeste 21 Sudoeste 0 1017.1 -0.1 62
2019-02-10 06:00:00 6.5 15 Sudoeste 21 Sudoeste 0 1016.8 -0.8 80
2019-02-10 05:00:00 7.6 13 Sudoeste 17 Sudoeste 0 1016.9 -1 77
2019-02-10 04:00:00 8.9 9 Sudoeste 17 Oeste 0 1017.2 -1 72
2019-02-10 03:00:00 7.8 14 Oeste 18 Oeste 0 1017.6 -0.7 82
2019-02-10 02:00:00 7.9 12 Oeste 15 Oeste 0 1017.9 -0.5 82
2019-02-10 01:00:00 8.8 9 Oeste 13 Sudoeste 0 1018.2 -0.1 82
2019-02-10 00:00:00 10.6 4 Sudoeste -- -- 0 1018.3 0 73
2019-02-09 23:00:00 10 8 Oeste 13 Noroeste 0 1018.4 0.4 83
2019-02-09 22:00:00 11.2 8 Norte 18 Nordeste 0 1018.3 0.5 81
2019-02-09 21:00:00 12.3 5 Nordeste 15 Norte 0 1018.3 0.7 80
2019-02-09 20:00:00 12.9 3 Nordeste 17 Nordeste 0 1018 0.7 75
2019-02-09 19:00:00 13.4 0 Calma 17 Sur 0 1017.8 0.5 74
2019-02-09 18:00:00 16.4 10 Sur 22 Sur 0 1017.6 0 61
2019-02-09 17:00:00 17.6 17 Sur 26 Sur 0 1017.3 -0.9 55
2019-02-09 16:00:00 19.5 17 Sur 26 Sur 0 1017.3 -1.6 46
2019-02-09 15:00:00 20.5 16 Sur 26 Sur 0 1017.6 -1.7 40
2019-02-09 14:00:00 21.2 15 Sur 22 Sur 0 1018.2 -1.2 31
2019-02-09 13:00:00 20.5 14 Sudoeste 26 Sudoeste 0 1018.9 -0.2 34
2019-02-09 12:00:00 18.6 17 Sudoeste 24 Sudoeste 0 1019.3 0.6 40
2019-02-09 11:00:00 17.8 15 Sudoeste 21 Sudoeste 0 1019.4 1.2 40
2019-02-09 10:00:00 15.8 9 Sudoeste 22 Oeste 0 1019.1 1.2 44
2019-02-09 09:00:00 12.9 13 Oeste 18 Oeste 0 1018.7 1.1 54
2019-02-09 08:00:00 8.3 13 Sudoeste 17 Sudoeste 0 1018.2 0.8 70
2019-02-09 07:00:00 7.9 6 Oeste 18 Oeste 0 1017.9 0.3 78
2019-02-09 06:00:00 8.4 16 Sudoeste 21 Sudoeste 0 1017.6 -0.2 78
2019-02-09 05:00:00 10.1 18 Oeste 26 Oeste 0 1017.4 -0.5 64
2019-02-09 04:00:00 8.8 15 Oeste 21 Oeste 0 1017.6 -0.5 76
2019-02-09 03:00:00 8.8 14 Oeste 18 Oeste 0 1017.8 -0.7 81
2019-02-09 02:00:00 8.7 12 Oeste 17 Oeste 0 1017.9 -0.7 85
2019-02-09 01:00:00 8.7 9 Oeste 13 Oeste 0 1018.1 -0.2 89
2019-02-09 00:00:00 9.2 5 Oeste 11 Oeste 0 1018.5 0.4 92
2019-02-08 23:00:00 9.7 0 Calma 8 Noroeste 0 1018.6 0.5 94
2019-02-08 22:00:00 10.1 0 Calma 9 Noroeste 0 1018.3 0.4 94
2019-02-08 21:00:00 11.4 6 Norte 11 Norte 0 1018.1 0.4 93
2019-02-08 20:00:00 12 5 Oeste -- -- 0 1018.1 0.2 90
2019-02-08 19:00:00 12.6 4 Sudoeste 13 Sur 0 1017.9 -0.1 85
2019-02-08 18:00:00 14.6 5 Sur 15 Sur 0 1017.7 -0.7 76
2019-02-08 17:00:00 15.9 10 Sur 18 Sur 0 1017.9 -1.3 69
2019-02-08 16:00:00 17.4 10 Sur 17 Sur 0 1018 -1.9 63
2019-02-08 15:00:00 17.7 9 Sur 18 Sur 0 1018.4 -2.2 63
2019-02-08 14:00:00 17.7 9 Sudeste 21 Este 0 1019.2 -1.6 64
2019-02-08 13:00:00 17.3 7 Sudeste 13 Sudeste 0 1019.9 -0.9 62
2019-02-08 12:00:00 16 6 Este 13 Este 0 1020.6 0 70
2019-02-08 11:00:00 14.6 7 Nordeste 15 Nordeste 0 1020.8 0.6 75
2019-02-08 10:00:00 14.1 10 Norte 15 Norte 0 1020.8 1.2 66
2019-02-08 09:00:00 11.6 5 Nordeste 13 Nordeste 0 1020.6 1.1 64
2019-02-08 08:00:00 7.9 5 Sudoeste 9 Oeste 0 1020.2 0.5 73
2019-02-08 07:00:00 8.3 5 Oeste 11 Noroeste 0 1019.6 -0.4 72
2019-02-08 06:00:00 7.7 5 Noroeste 11 Noroeste 0 1019.5 -0.7 75
2019-02-08 05:00:00 7.6 8 Oeste -- -- 0 1019.7 -0.5 75
2019-02-08 04:00:00 7.9 9 Oeste 9 Oeste 0 1020 -0.4 73
2019-02-08 03:00:00 8.7 5 Oeste 8 Noroeste 0 1020.2 0.2 72
2019-02-08 02:00:00 8.4 4 Noroeste 8 Noroeste 0 1020.2 0.7 74
2019-02-08 01:00:00 8.5 4 Noroeste 5 Noroeste 0 1020.4 1.4 74
2019-02-08 00:00:00 9.4 3 Sur 9 Sur 0 1020 1.3 71
2019-02-07 23:00:00 10.8 3 Noroeste 15 Norte 0 1019.5 1.1 68
2019-02-07 22:00:00 13.4 11 Norte 22 Norte 0 1019 1.1 59
2019-02-07 21:00:00 13.7 10 Nordeste 17 Nordeste 0 1018.7 1.4 67
2019-02-07 20:00:00 13 7 Nordeste 17 Nordeste 0 1018.4 1.5 82
2019-02-07 19:00:00 13.2 13 Este 22 Este 0 1017.9 1.2 84
2019-02-07 18:00:00 16.4 10 Nordeste 21 Nordeste 0 1017.3 0.4 66
2019-02-07 17:00:00 16.7 14 Este 22 Este 0 1016.9 -0.4 63
2019-02-07 16:00:00 17.3 15 Este 22 Este 0 1016.7 -1.2 68
2019-02-07 15:00:00 18.4 15 Este 21 Este 0 1016.9 -1.5 56
2019-02-07 14:00:00 18.2 14 Este 21 Este 0 1017.3 -0.9 57
2019-02-07 13:00:00 18.6 13 Este 22 Este 0 1017.9 0.1 53
2019-02-07 12:00:00 19.2 14 Norte 33 Norte 0 1018.4 1 35
2019-02-07 11:00:00 19.2 22 Noroeste 35 Noroeste 0 1018.2 1.1 35
2019-02-07 10:00:00 17.7 15 Oeste 26 Oeste 0 1017.8 0.8 40
2019-02-07 09:00:00 15.1 14 Oeste 26 Oeste 0 1017.4 0.3 46
2019-02-07 08:00:00 11.8 18 Oeste 26 Oeste 0 1017.1 0 56
2019-02-07 07:00:00 11.5 14 Sudoeste 26 Oeste 0 1017 -0.6 57
2019-02-07 06:00:00 12.3 18 Oeste 28 Oeste 0 1017.1 -0.9 55
2019-02-07 05:00:00 12.8 10 Sudoeste 24 Oeste 0 1017.1 -1.1 53
2019-02-07 04:00:00 8.7 11 Sudoeste 17 Sudoeste 0 1017.6 -1.1 69
2019-02-07 03:00:00 9.3 10 Oeste 15 Oeste 0 1018 -0.9 70
2019-02-07 02:00:00 9.2 8 Oeste 15 Sudoeste 0 1018.2 -0.8 74
2019-02-07 01:00:00 9.1 10 Sudoeste 11 Sudoeste 0 1018.7 -0.4 77
2019-02-07 00:00:00 8.7 3 Oeste 9 Oeste 0 1018.9 -0.4 77
2019-02-06 23:00:00 10.6 6 Oeste 9 Oeste 0 1019 -0.5 71
2019-02-06 22:00:00 10.4 6 Oeste 9 Oeste 0 1019.1 -0.5 72
2019-02-06 21:00:00 11.6 6 Norte 13 Norte 0 1019.3 0.1 78
2019-02-06 20:00:00 13 7 Norte 9 Norte 0 1019.5 0.3 78
2019-02-06 19:00:00 13.7 0 Calma 15 Sudoeste 0 1019.6 0.3 73
2019-02-06 18:00:00 16.4 6 Sur 26 Sur 0 1019.2 -0.6 58
2019-02-06 17:00:00 17.2 12 Sur 22 Sur 0 1019.2 -1.5 47
2019-02-06 16:00:00 18.6 13 Sur 18 Sur 0 1019.3 -2.4 43
2019-02-06 15:00:00 19.3 10 Sur 18 Sudoeste 0 1019.8 -2.8 43
2019-02-06 14:00:00 19.6 11 Este 22 Este 0 1020.7 -2 39
2019-02-06 13:00:00 19.5 8 Este 13 Este 0 1021.7 -1.1 34
2019-02-06 12:00:00 18.1 3 Este 9 Este 0 1022.6 0.1 38
2019-02-06 11:00:00 16.8 4 Este 8 Este 0 1022.7 0.6 42
2019-02-06 10:00:00 14.7 0 Calma 5 Este 0 1022.8 0.9 48
2019-02-06 09:00:00 10.7 4 Norte 8 Noroeste 0 1022.5 0.4 63
2019-02-06 08:00:00 8.8 6 Oeste 11 Oeste 0 1022.1 0.4 65
2019-02-06 07:00:00 8.8 4 Noroeste 9 Noroeste 0 1021.9 -0.2 67
2019-02-06 06:00:00 8.7 6 Norte 11 Oeste 0 1022.1 -0.2 67
2019-02-06 05:00:00 8 10 Oeste 13 Oeste 0 1021.7 -0.9 71
2019-02-06 04:00:00 7.8 8 Oeste 9 Oeste 0 1022.1 -0.7 71
2019-02-06 03:00:00 7.2 6 Oeste 9 Oeste 0 1022.3 -0.4 74
2019-02-06 02:00:00 8.7 0 Calma 11 Oeste 0 1022.6 -0.1 69
2019-02-06 01:00:00 8.3 12 Oeste 15 Oeste 0 1022.8 -0.1 70
2019-02-06 00:00:00 10.4 9 Noroeste 13 Noroeste 0 1022.7 -0.1 64
2019-02-05 23:00:00 10 10 Noroeste 15 Norte 0 1022.7 0 67
2019-02-05 22:00:00 10.3 3 Noroeste 8 Norte 0 1022.9 0.5 64
2019-02-05 21:00:00 10.7 0 Calma 9 Noroeste 0 1022.8 0.7 62
2019-02-05 20:00:00 12 0 Calma 11 Nordeste 0 1022.7 0.8 69
2019-02-05 19:00:00 13.4 7 Norte 11 Nordeste 0 1022.4 0.9 69
2019-02-05 18:00:00 15.8 0 Calma 17 Sudeste 0 1022.1 0.3 48
2019-02-05 17:00:00 17.7 12 Este 17 Este 0 1021.9 -0.6 47
2019-02-05 16:00:00 18.9 9 Sur 21 Sur 0 1021.5 -1.7 36
2019-02-05 15:00:00 19.6 13 Sur 22 Sur 0 1021.8 -2.2 33
2019-02-05 14:00:00 20.2 11 Sur 21 Sur 0 1022.5 -1.7 29
2019-02-05 13:00:00 18.8 12 Sudoeste 21 Sur 0 1023.2 -1.1 31
2019-02-05 12:00:00 18.2 6 Sudoeste 13 Sur 0 1024 0.3 28
2019-02-05 11:00:00 16.2 4 Sur 9 Sur 0 1024.2 0.9 33
2019-02-05 10:00:00 14.2 0 Calma 13 Oeste 0 1024.3 1.3 36
2019-02-05 09:00:00 8.7 8 Oeste 13 Oeste 0 1023.7 0.6 49
2019-02-05 08:00:00 7.5 7 Noroeste 15 Oeste 0 1023.3 0.8 50
2019-02-05 07:00:00 6.8 8 Sudoeste 13 Oeste 0 1023 0 52
2019-02-05 06:00:00 6.3 8 Sudoeste 11 Sudoeste 0 1023.1 0 54
2019-02-05 05:00:00 4.7 9 Noroeste 13 Noroeste 0 1022.5 -0.9 62
2019-02-05 04:00:00 4.4 6 Oeste 15 Sudoeste 0 1023 -0.6 62
2019-02-05 03:00:00 4.5 10 Sur 13 Sur 0 1023.1 -0.6 61
2019-02-05 02:00:00 7.6 11 Sudoeste 28 Oeste 0 1023.4 -0.4 49
2019-02-05 01:00:00 7.5 18 Oeste 21 Oeste 0 1023.6 -0.4 51
2019-02-05 00:00:00 6.3 11 Oeste 17 Oeste 0 1023.7 -0.1 60
2019-02-04 23:00:00 6.9 9 Oeste 11 Oeste 0 1023.8 0.3 63
2019-02-04 22:00:00 7.8 7 Noroeste 18 Norte 0 1024 0.7 61
2019-02-04 21:00:00 8.7 4 Noroeste 15 Este 0 1023.8 -- 60
2019-02-04 20:00:00 10.2 10 Norte 21 Norte 0 1023.5 0.8 58
2019-02-04 19:00:00 10.3 3 Norte 15 Sur 0 1023.3 1.1 52
2019-02-04 18:00:00 13 11 Sur 22 Sur 0 -- -- 42
2019-02-04 17:00:00 14.5 14 Sur 26 Sur 0 1022.7 -0.3 35
2019-02-04 16:00:00 16.8 14 Sur 24 Sur 0 1022.2 -1.7 21
2019-02-04 15:00:00 16.4 12 Sudoeste 22 Sudoeste 0 1022.4 -2.2 20
2019-02-04 14:00:00 15.6 17 Oeste 28 Oeste 0 1023 -1.2 21
2019-02-04 13:00:00 14.6 14 Oeste 28 Oeste 0 1023.9 -0.2 19
2019-02-04 12:00:00 13 16 Oeste 26 Oeste 0 1024.6 0.8 23
2019-02-04 11:00:00 12 15 Noroeste 26 Noroeste 0 1024.2 -- 23
2019-02-04 10:00:00 8.9 19 Noroeste 33 Noroeste 0 1024.1 1.1 32
2019-02-04 09:00:00 6.9 23 Noroeste 33 Noroeste 0 1023.8 -- 38
2019-02-04 08:00:00 5.8 23 Oeste 30 Noroeste 0 -- -- --
2019-02-04 07:00:00 4.8 20 Oeste 39 Noroeste 0 1023 0.5 50
2019-02-04 06:00:00 6.3 31 Oeste 42 Noroeste 0 -- -- 44
2019-02-04 05:00:00 6.1 27 Oeste 37 Oeste 0 1022.7 0.1 44
2019-02-04 04:00:00 6.5 22 Oeste 32 Oeste 0 1022.5 -0.4 42
2019-02-04 03:00:00 7.1 16 Oeste 32 Noroeste 0 1022.7 0 38
2019-02-04 02:00:00 7.2 18 Noroeste 24 Noroeste 0 1022.6 0.6 37
2019-02-04 01:00:00 7.9 17 Noroeste 26 Noroeste 0 1022.9 1.6 35
2019-02-04 00:00:00 6.6 11 Oeste 28 Noroeste 0 1022.7 2.2 38
2019-02-03 23:00:00 8 12 Norte 30 Norte 0 1022 2.4 30
2019-02-03 22:00:00 10.1 18 Norte 30 Norte 0 1021.3 2.9 24
2019-02-03 21:00:00 11 15 Norte 42 Norte 0 1020.5 2.9 22
2019-02-03 20:00:00 11.6 19 Noroeste 37 Noroeste 0 1019.6 2.7 23
2019-02-03 19:00:00 12.4 22 Noroeste 50 Noroeste 0 1018.4 1.6 21
2019-02-03 18:00:00 13.3 26 Noroeste 59 Noroeste 0 1017.6 1.6 18
2019-02-03 17:00:00 14.3 39 Noroeste 58 Norte 0 1016.9 0.5 18
2019-02-03 16:00:00 14.4 33 Norte 65 Norte 0 1016.8 0.2 17
2019-02-03 15:00:00 14.2 31 Noroeste 50 Oeste 0 1016 -1.4 18
2019-02-03 14:00:00 13.3 34 Noroeste 54 Oeste 0 1016.4 -1.3 24
2019-02-03 13:00:00 12.1 34 Oeste 50 Noroeste 0 1016.6 -0.2 26
2019-02-03 12:00:00 11.3 27 Noroeste 46 Oeste 0 1017.4 1.5 27
2019-02-03 11:00:00 9.6 33 Noroeste 61 Noroeste 0 1017.7 2.8 32
2019-02-03 10:00:00 8.5 44 Noroeste 74 Noroeste 0 1016.8 2.7 36
2019-02-03 09:00:00 7.7 41 Noroeste 63 Noroeste 0 1015.9 3.1 37
2019-02-03 08:00:00 7.4 33 Noroeste 68 Noroeste 0 1014.9 2.7 41
2019-02-03 07:00:00 7.8 36 Noroeste 59 Noroeste 0 1014.1 2.4 39
2019-02-03 06:00:00 7.8 41 Noroeste 72 Noroeste 0 1012.8 1 40
2019-02-03 05:00:00 8 44 Noroeste 78 Oeste 0 1012.2 1.1 41
2019-02-03 04:00:00 8.1 50 Noroeste 72 Noroeste 0 1011.7 0.7 41
2019-02-03 03:00:00 8.2 47 Noroeste 68 Oeste 0 1011.8 1.5 40
2019-02-03 02:00:00 8.8 54 Noroeste 71 Noroeste 0 1011.1 0.6 36
2019-02-03 01:00:00 8.8 44 Noroeste 74 Oeste 0 1011 1.2 35
2019-02-03 00:00:00 9.2 42 Noroeste 63 Noroeste 0 1010.3 1.2 32
2019-02-02 23:00:00 9.5 34 Noroeste 59 Noroeste 0 1010.5 2.1 32
2019-02-02 22:00:00 10.2 40 Noroeste 63 Noroeste 0 1009.8 2.8 30
2019-02-02 21:00:00 10.9 29 Noroeste 54 Noroeste 0 1009.1 3.1 25
2019-02-02 20:00:00 11.9 33 Noroeste 59 Noroeste 0 1008.4 3.3 23
2019-02-02 19:00:00 12.3 36 Noroeste 65 Oeste 0 1007 3.6 25
2019-02-02 18:00:00 13.3 40 Noroeste 65 Noroeste 0 1006 2.7 22
2019-02-02 17:00:00 13.8 31 Noroeste 72 Noroeste 0 1005.1 2.6 25
2019-02-02 16:00:00 14.5 45 Noroeste 74 Oeste 0 1003.4 2.1 27
2019-02-02 15:00:00 14.3 33 Oeste 61 Noroeste 0 1003.3 2.1 29
2019-02-02 14:00:00 13.4 39 Noroeste 72 Noroeste 0 1002.5 1.4 31
2019-02-02 13:00:00 14 53 Noroeste 85 Noroeste 0 1001.3 1 30
2019-02-02 12:00:00 13.6 40 Noroeste 74 Noroeste 0 1001.2 2.4 32
2019-02-02 11:00:00 12.3 36 Noroeste 65 Oeste 0 1001.1 3.1 37
2019-02-02 10:00:00 11.9 39 Oeste 65 Oeste 0 1000.3 3.5 38
2019-02-02 09:00:00 10.8 46 Oeste 72 Oeste 0 998.8 -- 41
2019-02-02 08:00:00 10.3 13 Oeste 45 Oeste 0 998 1.3 42
2019-02-02 07:00:00 10.1 26 Oeste 42 Oeste 0 996.8 1.4 44
2019-02-02 06:00:00 10.3 17 Sudoeste 32 Oeste 0 -- -- --
2019-02-02 05:00:00 10.9 28 Oeste 61 Oeste 0 996.7 1.3 42
2019-02-02 04:00:00 11.2 48 Oeste 78 Oeste 0 995.4 -- 43
2019-02-02 03:00:00 11.3 39 Oeste 65 Oeste 0 -- -- 46
2019-02-02 02:00:00 10.8 27 Sudoeste 42 Sudoeste 0 995.4 0.5 46
2019-02-02 01:00:00 11.1 30 Sudoeste 50 Sudoeste 0 -- -- 45
2019-02-02 00:00:00 11.7 33 Oeste 50 Oeste 0 995 0.9 44
2019-02-01 23:00:00 11.9 29 Oeste 39 Oeste 0 994.9 -- 49
2019-02-01 22:00:00 12.8 29 Oeste 50 Oeste 0 994.7 2.4 51
2019-02-01 21:00:00 13.3 40 Oeste 58 Oeste 0 994.1 2.1 50
2019-02-01 20:00:00 13 11 Sudoeste 22 Oeste 0 -- -- 42
2019-02-01 19:00:00 15.3 22 Oeste 42 Oeste 0 992.3 0.7 33
2019-02-01 18:00:00 16.8 23 Oeste 41 Oeste 0 992 0.4 29
2019-02-01 17:00:00 18.1 32 Oeste 50 Oeste 0 992 0.7 28
2019-02-01 16:00:00 19 25 Oeste 54 Oeste 0 991.6 -0.8 29
2019-02-01 15:00:00 19.6 33 Oeste 59 Oeste 0 991.6 -0.9 31
2019-02-01 14:00:00 19.2 32 Oeste 45 Oeste 0 991.3 -1.2 40
2019-02-01 13:00:00 16.4 15 Oeste 30 Noroeste 0.5 992.4 -1.1 77
2019-02-01 12:00:00 17.7 17 Oeste 26 Sudoeste 0 992.5 -0.4 68
2019-02-01 11:00:00 16.4 13 Sudoeste 22 Sudoeste 0 992.5 0.3 77
2019-02-01 10:00:00 14.1 9 Sudoeste 17 Sudoeste 0.6 993.5 0.7 88
2019-02-01 09:00:00 14.2 12 Oeste 22 Sudoeste 0 992.9 -0.5 79
2019-02-01 08:00:00 14.4 15 Sudoeste 32 Sudoeste 0 992.2 -1.9 78
2019-02-01 07:00:00 14.2 14 Sudoeste 28 Sudoeste 0 992.8 -2.3 77
2019-02-01 06:00:00 14.4 21 Sudoeste 39 Sudoeste 0 993.4 -2.8 73
2019-02-01 05:00:00 14.1 15 Sudoeste 24 Sur 0 994.1 -2.7 68
2019-02-01 04:00:00 13.4 10 Sudoeste 15 Sudoeste 0 995.1 -2.8 69
2019-02-01 03:00:00 12.6 6 Sudoeste 9 Oeste 0 996.2 -2.3 67
2019-02-01 02:00:00 12.9 9 Sudoeste 13 Sudoeste 0 996.8 -2.5 63
2019-02-01 01:00:00 13.1 10 Sudoeste 17 Sudoeste 0 997.9 -1.6 63
2019-02-01 00:00:00 13.8 14 Sudoeste 21 Sudoeste 0 998.5 -1.1 61
2019-01-31 23:00:00 14 10 Sur 15 Sur 0 999.3 -0.4 59
2019-01-31 22:00:00 14.1 9 Oeste 17 Oeste 0 999.5 0.1 59
2019-01-31 21:00:00 15.8 9 Sudoeste 22 Sudoeste 0 999.6 0.6 53
2019-01-31 20:00:00 17.6 13 Sudoeste 30 Sudoeste 0 999.7 1.2 46
2019-01-31 19:00:00 18.8 18 Oeste 45 Oeste 0 999.4 0.7 41
2019-01-31 18:00:00 20.5 26 Oeste 50 Oeste 0 999 -- 38
2019-01-31 17:00:00 21.7 32 Oeste 55 Oeste 0 998.5 -1.2 34
2019-01-31 16:00:00 22.2 33 Oeste 55 Oeste 0 998.7 -2.3 32
2019-01-31 15:00:00 20 23 Sudoeste 42 Sudoeste 0 -- -- 45
2019-01-31 14:00:00 18.6 23 Sudoeste 39 Sudoeste 0 999.7 -1.6 48
2019-01-31 13:00:00 17.2 17 Sudoeste 30 Sudoeste 0 1001 -0.3 52
2019-01-31 12:00:00 14.9 19 Sudoeste 37 Sudoeste 0 1001.8 0.6 57
2019-01-31 11:00:00 14.1 23 Sudoeste 35 Oeste 0 1001.3 0.2 56
2019-01-31 10:00:00 12.8 15 Sudoeste 26 Oeste 0 1001.3 0.1 58
2019-01-31 09:00:00 12.6 18 Sudoeste 30 Sudoeste 0 1001.2 -0.2 58
2019-01-31 08:00:00 12.4 17 Sudoeste 24 Sudoeste 0 1001.1 -0.8 58
2019-01-31 07:00:00 12.9 15 Sudoeste 24 Sudoeste 0 1001.2 -1 57
2019-01-31 06:00:00 11.1 12 Oeste 21 Oeste 0 1001.4 -2 60
2019-01-31 05:00:00 11.7 14 Oeste 18 Sudoeste 0 1001.9 -2.2 58
2019-01-31 04:00:00 12.1 15 Sudoeste 22 Sudoeste 0 1002.2 -2.7 55
2019-01-31 03:00:00 12.1 12 Sudoeste 18 Sudoeste 0 1003.4 -2 53
2019-01-31 02:00:00 12.1 8 Sur 18 Sur 0 1004.1 -- 52
2019-01-31 01:00:00 12.7 13 Sur 22 Sudoeste 0 1004.9 -0.9 48
2019-01-31 00:00:00 13.3 17 Sudoeste 32 Sudoeste 0 1005.4 -0.9 46
2019-01-30 23:00:00 14.1 12 Sudoeste 22 Oeste 0 -- -- --
2019-01-30 22:00:00 13.6 13 Oeste 17 Oeste 0 1005.8 -0.5 42
2019-01-30 21:00:00 13.6 6 Sudoeste 17 Sudoeste 0 1006.3 0.3 39
2019-01-30 20:00:00 14 11 Oeste 28 Oeste 0 1006.5 0.2 38
2019-01-30 19:00:00 15 10 Oeste 22 Oeste 0 1006.3 -0.1 33
2019-01-30 18:00:00 15.8 14 Oeste 41 Noroeste 0 1006 -1.1 33
2019-01-30 17:00:00 16.7 21 Oeste 37 Oeste 0 1006.3 -1.5 30
2019-01-30 16:00:00 17.6 30 Oeste 42 Oeste 0 1006.4 -2.4 28
2019-01-30 15:00:00 17.2 25 Noroeste 48 Noroeste 0 1007.1 -2.2 32
2019-01-30 14:00:00 16.7 34 Oeste 50 Oeste 0 1007.8 -1.4 33
2019-01-30 13:00:00 16.7 30 Oeste 45 Noroeste 0 1008.8 -0.1 34
2019-01-30 12:00:00 16.2 24 Oeste 39 Oeste 0 1009.3 1 40
2019-01-30 11:00:00 14.1 26 Noroeste 45 Noroeste 0 1009.2 1.3 48
2019-01-30 10:00:00 13.9 17 Noroeste 33 Noroeste 0 1008.9 1.5 50
2019-01-30 09:00:00 13.3 6 Sudoeste 21 Noroeste 0 1008.3 1 56
2019-01-30 08:00:00 13.6 0 Calma 24 Oeste 0 1007.9 0.8 53
2019-01-30 07:00:00 14.4 13 Oeste 26 Oeste 0 1007.4 -0.2 50
2019-01-30 06:00:00 14.5 7 Este 26 Noroeste 0 1007.3 0.2 49
2019-01-30 05:00:00 14.4 13 Noroeste 32 Noroeste 0 1007.1 -- 50
2019-01-30 04:00:00 13.5 8 Este 15 Sur 0 1007.6 -- 52
2019-01-30 03:00:00 13.4 9 Sur 39 Oeste 0 1007.1 0.2 51
2019-01-30 02:00:00 15.3 25 Oeste 45 Noroeste 0 -- -- 45
2019-01-30 01:00:00 14.9 29 Oeste 45 Oeste 0 -- -- 46
2019-01-30 00:00:00 15.4 22 Oeste 33 Oeste 0 1006.9 0.9 46
2019-01-29 23:00:00 14.5 27 Oeste 37 Oeste 0 1006.5 0.1 49
2019-01-29 22:00:00 13.4 15 Sudoeste 26 Oeste 0 1006.5 -- 54
2019-01-29 21:00:00 13.8 16 Oeste 24 Sudoeste 0 1006 -1 51
2019-01-29 20:00:00 15.2 15 Oeste 37 Oeste 0 1006.4 -0.9 46
2019-01-29 19:00:00 15.6 23 Oeste 39 Oeste 0 -- -- --
2019-01-29 18:00:00 16.6 30 Oeste 50 Noroeste 0 1007 -0.3 39
2019-01-29 17:00:00 17.3 34 Noroeste 46 Noroeste 0 1007.3 -2.1 37
2019-01-29 16:00:00 18.4 20 Oeste 39 Oeste 0 1007.1 -2.9 34
2019-01-29 15:00:00 17.8 15 Sudoeste 28 Sudoeste 0 1007.3 -4.4 37
2019-01-29 14:00:00 16.1 17 Oeste 37 Oeste 0 1009.4 -2.5 42
2019-01-29 13:00:00 15.8 17 Oeste 41 Oeste 0 1010 -2.7 42
2019-01-29 12:00:00 16.7 18 Oeste 39 Oeste 0 1011.7 -0.9 38
2019-01-29 11:00:00 13.7 7 Sur 24 Sudeste 0 1011.9 -0.3 47
2019-01-29 10:00:00 12.5 4 Norte 15 Noroeste 0 1012.7 0.7 53
2019-01-29 09:00:00 12 12 Oeste 26 Noroeste 0 1012.6 1.3 54
2019-01-29 08:00:00 11.7 12 Oeste 26 Oeste 0 1012.2 1.3 55
2019-01-29 07:00:00 11.8 14 Oeste 32 Oeste 0 1012 0.3 52
2019-01-29 06:00:00 11.3 17 Oeste 48 Noroeste 0 1011.3 -0.1 56
2019-01-29 05:00:00 12.1 37 Noroeste 50 Noroeste 0 1010.9 -1.2 54
2019-01-29 04:00:00 12.6 33 Noroeste 46 Oeste 0 1011.7 -0.6 52
2019-01-29 03:00:00 13.4 31 Oeste 45 Oeste 0 1011.4 -0.4 49
2019-01-29 02:00:00 13.8 23 Oeste 35 Oeste 0 1012.1 -- 50
2019-01-29 01:00:00 13.9 12 Sudoeste 26 Oeste 0 1012.3 1 50
2019-01-29 00:00:00 13.3 13 Oeste 18 Sudoeste 0 1011.8 0.9 51
2019-01-28 23:00:00 14.3 15 Oeste 28 Oeste 0 -- -- 44
2019-01-28 22:00:00 14.5 17 Oeste 32 Oeste 0 1011.3 1.5 42
2019-01-28 21:00:00 15.9 22 Oeste 42 Noroeste 0 1010.9 1.3 34
2019-01-28 20:00:00 16.4 29 Oeste 42 Noroeste 0 1010.3 1.8 31
2019-01-28 19:00:00 17.1 21 Oeste 42 Noroeste 0 1009.8 1.5 26
2019-01-28 18:00:00 18.2 38 Noroeste 67 Noroeste 0 1009.6 0.8 24
2019-01-28 17:00:00 18.7 34 Noroeste 55 Oeste 0 1008.5 -0.7 24
2019-01-28 16:00:00 19.7 33 Oeste 55 Oeste 0 1008.3 -1.7 22
2019-01-28 15:00:00 19.3 32 Oeste 58 Oeste 0 1008.8 -2.6 23
2019-01-28 14:00:00 18.4 30 Oeste 59 Oeste 0 1009.2 -2.3 24
2019-01-28 13:00:00 17.3 38 Oeste 52 Noroeste 0 1010 -2.1 27
2019-01-28 12:00:00 16.6 23 Noroeste 50 Noroeste 0 1011.4 -- 28
2019-01-28 11:00:00 14.5 33 Noroeste 46 Noroeste 0 1011.5 -0.2 32
2019-01-28 10:00:00 12.1 23 Noroeste 50 Noroeste 0 1012.1 0.1 38
2019-01-28 09:00:00 10.7 28 Noroeste 58 Noroeste 0 -- -- 44
2019-01-28 08:00:00 9.9 42 Noroeste 58 Noroeste 0 1011.7 -1.1 47
2019-01-28 07:00:00 9.6 18 Oeste 30 Oeste 0 1012 -0.4 49
2019-01-28 06:00:00 9.8 12 Oeste 45 Oeste 0 1012.3 0 47
2019-01-28 05:00:00 10.4 21 Oeste 41 Oeste 0 1012.8 0.3 43
2019-01-28 04:00:00 11.4 23 Oeste 42 Oeste 0 1012.4 0.1 38
2019-01-28 03:00:00 11.7 27 Oeste 33 Oeste 0 1012.3 0 36
2019-01-28 02:00:00 13 26 Oeste 37 Oeste 0 1012.5 0.6 32
2019-01-28 01:00:00 13.4 24 Oeste 39 Oeste 0 1012.3 0.9 31
2019-01-28 00:00:00 12.4 9 Noroeste 13 Oeste 0 1012.3 1.6 34
2019-01-27 23:00:00 12.9 8 Oeste 26 Oeste 0 1011.9 2.3 32
2019-01-27 22:00:00 14.3 17 Oeste 45 Noroeste 0 1011.4 2.5 29
2019-01-27 21:00:00 14.9 27 Noroeste 58 Noroeste 0 1010.7 2.4 28
2019-01-27 20:00:00 15.8 42 Noroeste 55 Noroeste 0 1009.6 2 27
2019-01-27 19:00:00 16.3 39 Noroeste 58 Noroeste 0 1008.9 1.4 31
2019-01-27 18:00:00 17 27 Oeste 55 Oeste 0 1008.3 0.7 30
2019-01-27 17:00:00 18 41 Oeste 58 Noroeste 0 1007.6 0.4 29
2019-01-27 16:00:00 18.3 32 Oeste 55 Noroeste 0 1007.5 0.1 29
2019-01-27 15:00:00 19.2 36 Noroeste 58 Noroeste 0 1007.6 0.1 31
2019-01-27 14:00:00 18.1 36 Noroeste 63 Noroeste 0 1007.2 0.4 34
2019-01-27 13:00:00 19.7 40 Noroeste 59 Noroeste 0 1007.4 -- 31
2019-01-27 12:00:00 19.2 36 Noroeste 58 Noroeste 0 1007.5 -0.1 31
2019-01-27 11:00:00 17.2 47 Noroeste 58 Noroeste 0 1006.8 -- 41
2019-01-27 10:00:00 14.7 9 Oeste 18 Oeste 0 -- -- 44
2019-01-27 09:00:00 12.9 15 Oeste 26 Oeste 0 1007.6 -0.2 46
2019-01-27 08:00:00 13.2 15 Sudoeste 24 Oeste 0 -- -- 44
2019-01-27 07:00:00 11.6 9 Sudoeste 17 Oeste 0 1007.2 -1.7 49
2019-01-27 06:00:00 11.5 10 Sur 22 Sudoeste 0 1007.8 -1.8 48
2019-01-27 05:00:00 9.1 13 Sudoeste 22 Sur 0 1008.3 -1.8 61
2019-01-27 04:00:00 11.2 13 Sudoeste 26 Sudoeste 0 1008.9 -2 53
2019-01-27 03:00:00 11.1 13 Sudoeste 30 Sudoeste 0 1009.6 -2 55
2019-01-27 02:00:00 12.9 22 Oeste 33 Oeste 0 1010.1 -1.8 46
2019-01-27 01:00:00 12 16 Sudoeste 22 Sudoeste 0 1010.9 -1.4 52
2019-01-27 00:00:00 7.9 13 Oeste 17 Sudoeste 0 1011.6 -1.1 84
2019-01-26 23:00:00 8.8 13 Oeste 15 Sudoeste 0 1011.9 -1.1 88
2019-01-26 22:00:00 9.7 5 Oeste -- -- 0 1012.3 -0.8 92
2019-01-26 21:00:00 10.2 10 Oeste 13 Oeste 0 1012.7 -0.6 88
2019-01-26 20:00:00 10.5 10 Oeste 17 Sudoeste 0 1013 -0.8 87
2019-01-26 19:00:00 13.1 11 Oeste 15 Oeste 0 1013.1 -1 83
2019-01-26 18:00:00 15 13 Sur 26 Sur 0 1013.3 -1.3 71
2019-01-26 17:00:00 16.7 16 Sur 32 Sur 0 1013.8 -1.6 56
2019-01-26 16:00:00 17.7 20 Sur 32 Sur 0 1014.1 -2.2 45
2019-01-26 15:00:00 18.4 15 Sur 30 Oeste 0 1014.6 -2.7 46
2019-01-26 14:00:00 18.7 17 Sudoeste 28 Sudoeste 0 1015.4 -1.7 39
2019-01-26 13:00:00 18.2 12 Sudoeste 24 Sudoeste 0 1016.3 -0.6 38
2019-01-26 12:00:00 17.1 16 Sudoeste 22 Sudoeste 0 1017.3 0.6 39
2019-01-26 11:00:00 16.3 9 Oeste 15 Oeste 0 1017.1 1.3 40
2019-01-26 10:00:00 14 5 Sudoeste 13 Oeste 0 1016.9 1.6 49
2019-01-26 09:00:00 9.7 10 Sudoeste 17 Oeste 0 1016.7 1.6 61
2019-01-26 08:00:00 9.3 10 Oeste 17 Oeste 0 1015.8 1.1 61
2019-01-26 07:00:00 9 12 Oeste 15 Oeste 0 1015.3 1 63
2019-01-26 06:00:00 9.8 12 Oeste 18 Noroeste 0 1015.1 1.1 60
2019-01-26 05:00:00 9.9 9 Oeste 13 Oeste 0 1014.7 1.5 60
2019-01-26 04:00:00 10.7 12 Noroeste 17 Noroeste 0 1014.3 1.1 57
2019-01-26 03:00:00 11.8 12 Noroeste 17 Oeste 0 1014 1.2 53
2019-01-26 02:00:00 12 13 Oeste 22 Noroeste 0 1013.2 0.8 53
2019-01-26 01:00:00 13.6 17 Noroeste 22 Noroeste 0 1013.2 1.2 49
2019-01-26 00:00:00 14.1 11 Noroeste 24 Noroeste 0 1012.8 1.2 48
2019-01-25 23:00:00 14.6 17 Oeste 28 Oeste 0 1012.4 1.2 47
2019-01-25 22:00:00 13.5 13 Oeste 24 Oeste 0 1012 -- 52
2019-01-25 21:00:00 15.1 21 Oeste 26 Oeste 0 1011.6 1.6 48
2019-01-25 20:00:00 15.4 11 Oeste 18 Oeste 0 1011.2 1.4 46
2019-01-25 19:00:00 16.1 7 Oeste 21 Noroeste 0 -- -- 41
2019-01-25 18:00:00 20.1 13 Norte 39 Noroeste 0 1010 0.4 30
2019-01-25 17:00:00 21.1 26 Noroeste 35 Noroeste 0 1009.8 -0.2 29
2019-01-25 16:00:00 21.7 20 Noroeste 39 Noroeste 0 1009.5 -1.2 28
2019-01-25 15:00:00 21.4 19 Noroeste 35 Noroeste 0 1009.6 -1.6 31
2019-01-25 14:00:00 20.8 12 Norte 37 Oeste 0 1010 -1.1 32
2019-01-25 13:00:00 19.5 26 Oeste 39 Oeste 0 1010.7 -0.3 36
2019-01-25 12:00:00 18.1 28 Oeste 39 Oeste 0 1011.2 0.8 41
2019-01-25 11:00:00 16.6 24 Oeste 37 Oeste 0 1011.1 1.2 45
2019-01-25 10:00:00 15 19 Oeste 28 Oeste 0 1011 1.4 49
2019-01-25 09:00:00 11.8 16 Oeste 24 Noroeste 0 1010.4 1.8 59
2019-01-25 08:00:00 11.6 16 Noroeste 21 Noroeste 0 1009.9 1.3 58
2019-01-25 07:00:00 12.3 6 Oeste 37 Noroeste 0 1009.6 0.5 56
2019-01-25 06:00:00 13.5 27 Noroeste 45 Noroeste 0 1008.6 -0.7 53
2019-01-25 05:00:00 12.9 28 Noroeste 39 Noroeste 0 1008.6 -0.7 55
2019-01-25 04:00:00 12.8 17 Oeste 33 Oeste 0 1009.1 0.4 54
2019-01-25 03:00:00 12 20 Oeste 26 Oeste 0 1009.3 0.3 56
2019-01-25 02:00:00 12.1 13 Oeste 42 Norte 0 1009.3 0.6 55
2019-01-25 01:00:00 15.4 26 Norte 42 Norte 0 1008.7 -- 38
2019-01-25 00:00:00 9.5 4 Sudoeste 13 Oeste 0 1009 -- 65
2019-01-24 23:00:00 11.5 6 Sudoeste 24 Norte 0 1008.7 1.7 62
2019-01-24 22:00:00 14.4 18 Noroeste 39 Noroeste 0 -- -- 42
2019-01-24 21:00:00 14.3 21 Noroeste 33 Oeste 0 -- -- 44
2019-01-24 20:00:00 13.9 23 Noroeste 41 Oeste 0 1007 1.5 49
2019-01-24 19:00:00 13.1 18 Oeste 22 Oeste 0 1006.4 1.7 63
2019-01-24 18:00:00 13.6 11 Oeste 22 Oeste 0 1006 1.4 59
2019-01-24 17:00:00 14.2 17 Sudoeste 30 Oeste 0 1005.5 1.3 58
2019-01-24 16:00:00 14.7 5 Sudoeste 13 Norte 0 1004.7 0.4 56
2019-01-24 15:00:00 14.7 4 Este 13 Sudeste 0 1004.6 0.1 56
2019-01-24 14:00:00 14.6 9 Este 15 Este 0 1004.2 0.3 53
2019-01-24 13:00:00 14.7 6 Este 21 Este 0 1004.3 1.5 52
2019-01-24 12:00:00 14.2 11 Este 22 Sudeste 0 1004.5 -- 60
2019-01-24 11:00:00 14.3 19 Este 41 Noroeste 0 1003.9 2.6 61
2019-01-24 10:00:00 15.7 15 Noroeste 35 Noroeste 0 1002.8 2.4 44
2019-01-24 09:00:00 15.6 24 Oeste 41 Oeste 0 -- -- 44
2019-01-24 08:00:00 15.6 23 Oeste 58 Oeste 0 1001.3 1.3 46
2019-01-24 07:00:00 16 22 Oeste 48 Oeste 0 1000.4 0.2 44
2019-01-24 06:00:00 16.1 28 Oeste 59 Oeste 0 -- -- 44
2019-01-24 05:00:00 16.5 30 Oeste 54 Noroeste 0 1000 0.1 42
2019-01-24 04:00:00 16.9 22 Oeste 50 Noroeste 0 1000.2 -0.1 41
2019-01-24 03:00:00 16.9 16 Oeste 46 Oeste 0 999.9 0 41
2019-01-24 02:00:00 17.2 26 Oeste 46 Oeste 0 999.9 0.7 41
2019-01-24 01:00:00 17.6 30 Oeste 54 Oeste 0 1000.3 0.8 39
2019-01-24 00:00:00 17.6 19 Oeste 41 Oeste 0 999.9 0.5 38